createdAt,value
2023-04-08T00:00:17.329Z,14.68
2023-04-08T00:02:43.972Z,14.95
2023-04-08T00:05:10.620Z,13.93
2023-04-08T00:07:37.476Z,15.10
2023-04-08T00:10:04.317Z,13.63
2023-04-08T00:12:30.936Z,16.08
2023-04-08T00:14:58.030Z,15.95
2023-04-08T00:17:24.574Z,17.10
2023-04-08T00:19:51.727Z,15.57
2023-04-08T00:22:18.549Z,15.68
2023-04-08T00:24:45.040Z,18.83
2023-04-08T00:27:11.567Z,16.48
2023-04-08T00:29:38.050Z,16.33
2023-04-08T00:32:04.845Z,18.15
2023-04-08T00:34:31.326Z,19.88
2023-04-08T00:36:58.259Z,20.17
2023-04-08T00:39:25.044Z,23.25
2023-04-08T00:41:51.502Z,18.83
2023-04-08T00:44:18.097Z,22.40
2023-04-08T00:46:44.585Z,24.00
2023-04-08T00:49:11.438Z,21.45
2023-04-08T00:51:38.009Z,22.83
2023-04-08T00:54:05.299Z,26.17
2023-04-08T00:56:32.786Z,26.48
2023-04-08T00:59:00.418Z,26.90
2023-04-08T01:01:35.351Z,27.50
2023-04-08T01:04:20.695Z,27.70
2023-04-08T01:07:17.546Z,29.75
2023-04-08T01:09:46.952Z,24.60
2023-04-08T01:12:18.641Z,30.30
2023-04-08T01:14:47.190Z,27.35
2023-04-08T01:17:15.361Z,28.48
2023-04-08T01:19:44.781Z,26.15
2023-04-08T01:22:19.830Z,30.95
2023-04-08T01:24:47.905Z,29.23
2023-04-08T01:27:14.484Z,31.63
2023-04-08T01:29:42.097Z,31.88
2023-04-08T01:32:09.401Z,31.25
2023-04-08T01:34:36.375Z,31.85
2023-04-08T01:37:03.440Z,31.75
2023-04-08T01:39:30.556Z,31.83
2023-04-08T01:41:59.169Z,30.25
2023-04-08T01:44:26.463Z,32.75
2023-04-08T01:46:54.114Z,35.83
2023-04-08T01:49:22.605Z,29.73
2023-04-08T01:51:49.277Z,34.58
2023-04-08T01:54:16.172Z,35.85
2023-04-08T01:56:44.688Z,32.17
2023-04-08T01:59:14.235Z,38.03
2023-04-08T02:01:41.989Z,38.58
2023-04-08T02:04:08.666Z,32.28
2023-04-08T02:06:35.940Z,34.03
2023-04-08T02:09:02.806Z,36.53
2023-04-08T02:11:29.776Z,37.67
2023-04-08T02:13:56.890Z,35.40
2023-04-08T02:16:31.369Z,35.53
2023-04-08T02:19:08.532Z,34.42
2023-04-08T02:21:47.518Z,35.95
2023-04-08T02:24:15.480Z,35.33
2023-04-08T02:26:43.363Z,36.03
2023-04-08T02:29:12.792Z,38.03
2023-04-08T02:31:41.889Z,38.17
2023-04-08T02:34:10.438Z,37.25
2023-04-08T02:36:37.385Z,35.63
2023-04-08T02:39:04.133Z,36.33
2023-04-08T02:41:31.474Z,40.45
2023-04-08T02:43:58.480Z,39.88
2023-04-08T02:46:24.985Z,42.13
2023-04-08T02:48:51.908Z,40.00
2023-04-08T02:51:18.468Z,40.40
2023-04-08T02:53:45.390Z,41.25
2023-04-08T02:56:12.030Z,40.03
2023-04-08T02:58:38.583Z,41.13
2023-04-08T03:01:05.504Z,39.03
2023-04-08T03:03:32.295Z,40.25
2023-04-08T03:05:58.901Z,38.13
2023-04-08T03:08:25.881Z,38.13
2023-04-08T03:10:52.497Z,40.83
2023-04-08T03:13:19.045Z,37.58
2023-04-08T03:15:45.844Z,40.08
2023-04-08T03:18:12.346Z,38.22
2023-04-08T03:20:38.813Z,39.08
2023-04-08T03:23:05.445Z,37.92
2023-04-08T03:25:32.016Z,39.92
2023-04-08T03:27:58.616Z,37.60
2023-04-08T03:30:25.261Z,39.65
2023-04-08T03:32:51.816Z,39.70
2023-04-08T03:35:18.396Z,38.80
2023-04-08T03:37:44.922Z,36.70
2023-04-08T03:40:12.066Z,39.92
2023-04-08T03:42:38.682Z,40.60
2023-04-08T03:45:05.704Z,41.22
2023-04-08T03:47:32.334Z,40.15
2023-04-08T03:49:58.848Z,41.67
2023-04-08T03:52:25.661Z,39.95
2023-04-08T03:54:52.245Z,38.80
2023-04-08T03:57:18.715Z,42.20
2023-04-08T03:59:45.319Z,42.65
2023-04-08T04:02:11.871Z,35.65
2023-04-08T04:04:38.735Z,41.88
2023-04-08T04:07:05.274Z,40.97
2023-04-08T04:09:31.773Z,41.35
2023-04-08T04:11:58.262Z,43.03
2023-04-08T04:14:24.794Z,41.50
2023-04-08T04:16:51.277Z,39.40
2023-04-08T04:19:18.418Z,36.63
2023-04-08T04:21:44.966Z,42.60
2023-04-08T04:24:11.502Z,40.78
2023-04-08T04:26:38.118Z,42.67
2023-04-08T04:29:04.793Z,40.72
2023-04-08T04:31:31.363Z,43.80
2023-04-08T04:33:57.865Z,43.15
2023-04-08T04:36:24.347Z,40.10
2023-04-08T04:38:51.573Z,42.28
2023-04-08T04:41:18.392Z,42.38
2023-04-08T04:43:44.967Z,39.53
2023-04-08T04:46:11.514Z,37.67
2023-04-08T04:48:38.080Z,44.03
2023-04-08T04:51:04.624Z,40.70
2023-04-08T04:53:31.696Z,41.50
2023-04-08T04:55:58.624Z,38.80
2023-04-08T04:58:25.421Z,42.17
2023-04-08T05:00:51.975Z,40.53
2023-04-08T05:03:18.539Z,42.13
2023-04-08T05:05:45.406Z,43.85
2023-04-08T05:08:11.900Z,41.65
2023-04-08T05:10:40.799Z,37.63
2023-04-08T05:13:07.299Z,41.35
2023-04-08T05:15:33.801Z,40.10
2023-04-08T05:18:00.377Z,39.45
2023-04-08T05:20:26.904Z,39.03
2023-04-08T05:22:53.366Z,39.70
2023-04-08T05:25:19.951Z,41.00
2023-04-08T05:27:46.983Z,40.55
2023-04-08T05:30:13.527Z,40.92
2023-04-08T05:32:40.063Z,38.10
2023-04-08T05:35:07.027Z,35.25
2023-04-08T05:37:33.509Z,38.63
2023-04-08T05:40:00.040Z,40.63
2023-04-08T05:42:27.075Z,39.22
2023-04-08T05:44:53.552Z,39.25
2023-04-08T05:47:20.306Z,40.72
2023-04-08T05:49:46.817Z,42.33
2023-04-08T05:52:13.328Z,41.80
2023-04-08T05:54:42.976Z,40.83
2023-04-08T05:57:10.524Z,41.28
2023-04-08T05:59:37.106Z,39.20
2023-04-08T06:02:03.810Z,41.30
2023-04-08T06:04:30.496Z,40.90
2023-04-08T06:06:59.734Z,39.85
2023-04-08T06:09:26.489Z,40.95
2023-04-08T06:11:52.971Z,38.60
2023-04-08T06:14:20.837Z,40.70
2023-04-08T06:16:47.528Z,42.25
2023-04-08T06:19:14.057Z,40.35
2023-04-08T06:21:40.550Z,42.13
2023-04-08T06:24:07.021Z,40.95
2023-04-08T06:26:33.558Z,42.30
2023-04-08T06:29:00.630Z,40.90
2023-04-08T06:31:27.141Z,41.97
2023-04-08T06:33:53.644Z,41.28
2023-04-08T06:36:20.471Z,38.70
2023-04-08T06:38:47.074Z,40.47
2023-04-08T06:41:13.558Z,39.20
2023-04-08T06:43:40.044Z,40.92
2023-04-08T06:46:07.027Z,39.85
2023-04-08T06:48:33.704Z,40.35
2023-04-08T06:51:01.293Z,37.53
2023-04-08T06:53:29.456Z,38.40
2023-04-08T06:55:55.985Z,40.67
2023-04-08T06:58:22.658Z,36.97
2023-04-08T07:00:49.250Z,38.45
2023-04-08T07:03:16.075Z,38.55
2023-04-08T07:05:42.617Z,36.38
2023-04-08T07:08:09.222Z,36.72
2023-04-08T07:10:36.102Z,37.83
2023-04-08T07:13:02.993Z,37.22
2023-04-08T07:15:29.544Z,36.28
2023-04-08T07:17:59.914Z,38.13
2023-04-08T07:20:26.642Z,38.30
2023-04-08T07:22:53.232Z,37.53
2023-04-08T07:25:19.809Z,36.75
2023-04-08T07:27:46.558Z,36.08
2023-04-08T07:30:13.159Z,36.88
2023-04-08T07:32:39.871Z,38.35
2023-04-08T07:35:06.574Z,35.92
2023-04-08T07:37:33.141Z,38.50
2023-04-08T07:39:59.637Z,37.03
2023-04-08T07:42:26.125Z,36.75
2023-04-08T07:44:52.841Z,37.03
2023-04-08T07:47:19.411Z,38.22
2023-04-08T07:49:47.008Z,36.90
2023-04-08T07:52:13.494Z,36.60
2023-04-08T07:54:40.022Z,35.88
2023-04-08T07:57:06.623Z,36.17
2023-04-08T07:59:33.388Z,37.10
2023-04-08T08:01:59.897Z,35.90
2023-04-08T08:04:26.755Z,37.42
2023-04-08T08:06:53.418Z,35.30
2023-04-08T08:09:19.924Z,36.20
2023-04-08T08:11:46.435Z,35.40
2023-04-08T08:14:13.956Z,36.72
2023-04-08T08:16:40.512Z,35.50
2023-04-08T08:19:08.767Z,34.85
2023-04-08T08:21:38.282Z,33.63
2023-04-08T08:24:05.031Z,35.35
2023-04-08T08:26:31.535Z,32.10
2023-04-08T08:28:58.056Z,32.40
2023-04-08T08:31:24.567Z,33.65
2023-04-08T08:33:51.333Z,32.42
2023-04-08T08:36:18.214Z,33.15
2023-04-08T08:38:44.771Z,33.50
2023-04-08T08:41:11.257Z,31.98
2023-04-08T08:43:38.338Z,30.45
2023-04-08T08:46:04.824Z,31.25
2023-04-08T08:48:32.372Z,28.60
2023-04-08T08:50:58.854Z,31.05
2023-04-08T08:53:29.975Z,30.17
2023-04-08T08:58:27.739Z,32.00
2023-04-08T09:00:54.245Z,29.77
2023-04-08T09:03:27.657Z,31.77
2023-04-08T09:05:59.768Z,33.42
2023-04-08T09:08:36.886Z,32.95
2023-04-08T09:11:17.503Z,31.50
2023-04-08T09:13:45.068Z,31.90
2023-04-08T09:16:13.959Z,31.52
2023-04-08T09:18:44.815Z,29.70
2023-04-08T09:21:12.462Z,30.73
2023-04-08T09:23:49.938Z,29.02
2023-04-08T09:26:20.100Z,29.42
2023-04-08T09:29:14.748Z,27.05
2023-04-08T09:34:25.598Z,27.83
2023-04-08T09:36:53.163Z,27.65
2023-04-08T09:39:19.874Z,27.73
2023-04-08T09:41:48.889Z,27.30
2023-04-08T09:44:17.039Z,29.35
2023-04-08T09:46:49.181Z,28.80
2023-04-08T09:49:23.034Z,28.50
2023-04-08T09:52:08.575Z,29.75
2023-04-08T09:54:53.206Z,30.58
2023-04-08T09:57:31.343Z,27.98
2023-04-08T10:00:03.535Z,29.48
2023-04-08T10:03:07.503Z,29.67
2023-04-08T10:05:37.802Z,29.90
2023-04-08T10:08:05.827Z,29.27
2023-04-08T10:10:32.810Z,28.88
2023-04-08T10:12:59.545Z,30.00
2023-04-08T10:15:36.906Z,29.63
2023-04-08T10:18:03.301Z,27.02
2023-04-08T10:20:38.729Z,28.02
2023-04-08T10:23:10.616Z,29.35
2023-04-08T10:25:48.020Z,26.73
2023-04-08T10:28:15.243Z,28.42
2023-04-08T10:30:46.152Z,28.02
2023-04-08T10:33:22.903Z,24.20
2023-04-08T10:36:00.889Z,22.75
2023-04-08T10:38:27.436Z,20.45
2023-04-08T10:40:54.246Z,20.42
2023-04-08T10:43:21.065Z,21.23
2023-04-08T10:45:51.345Z,22.42
2023-04-08T10:48:19.878Z,24.88
2023-04-08T10:50:56.985Z,23.63
2023-04-08T10:53:31.262Z,26.35
2023-04-08T10:56:08.113Z,24.77
2023-04-08T10:58:51.184Z,21.98
2023-04-08T11:01:19.858Z,22.35
2023-04-08T11:03:46.566Z,22.48
2023-04-08T11:06:13.257Z,23.70
2023-04-08T11:08:39.819Z,22.40
2023-04-08T11:11:11.681Z,23.60
2023-04-08T11:13:46.457Z,22.33
2023-04-08T11:16:19.441Z,24.60
2023-04-08T11:18:46.247Z,22.70
2023-04-08T11:21:12.863Z,22.88
2023-04-08T11:23:39.400Z,23.40
2023-04-08T11:26:06.527Z,23.77
2023-04-08T11:28:33.168Z,23.30
2023-04-08T11:30:59.827Z,24.92
2023-04-08T11:33:27.343Z,24.10
2023-04-08T11:35:54.054Z,22.23
2023-04-08T11:38:24.679Z,23.13
2023-04-08T11:40:55.575Z,21.52
2023-04-08T11:43:22.466Z,20.95
2023-04-08T11:45:49.031Z,19.23
2023-04-08T11:48:16.449Z,21.05
2023-04-08T11:50:43.956Z,20.98
2023-04-08T11:53:21.367Z,20.45
2023-04-08T11:55:48.968Z,19.42
2023-04-08T11:58:15.817Z,19.92
2023-04-08T12:00:42.853Z,20.35
2023-04-08T12:03:09.540Z,19.83
2023-04-08T12:05:36.347Z,19.88
2023-04-08T12:08:03.526Z,19.80
2023-04-08T12:10:30.098Z,18.92
2023-04-08T12:12:56.742Z,18.98
2023-04-08T12:15:23.248Z,20.52
2023-04-08T12:17:49.911Z,21.08
2023-04-08T12:20:17.330Z,20.98
2023-04-08T12:22:43.867Z,18.63
2023-04-08T12:25:10.354Z,18.13
2023-04-08T12:27:36.864Z,16.50
2023-04-08T12:30:03.692Z,18.27
2023-04-08T12:32:30.224Z,16.73
2023-04-08T12:34:56.870Z,15.80
2023-04-08T12:37:23.376Z,15.85
2023-04-08T12:39:49.932Z,14.68
2023-04-08T12:42:16.603Z,9.95
2023-04-08T12:44:43.127Z,8.48
2023-04-08T12:47:09.817Z,8.95
2023-04-08T12:49:48.823Z,9.95
2023-04-08T12:52:16.216Z,11.95
2023-04-08T12:54:42.800Z,11.77
2023-04-08T12:57:09.333Z,11.82
2023-04-08T12:59:35.986Z,11.80
2023-04-08T13:02:02.555Z,12.98
2023-04-08T13:04:29.083Z,13.02
2023-04-08T13:06:56.357Z,12.75
2023-04-08T13:09:22.978Z,13.63
2023-04-08T13:11:49.590Z,13.45
2023-04-08T13:14:16.432Z,12.65
2023-04-08T13:16:42.958Z,13.55
2023-04-08T13:19:09.486Z,12.57
2023-04-08T13:21:36.244Z,12.88
2023-04-08T13:24:02.750Z,11.98
2023-04-08T13:26:29.350Z,13.30
2023-04-08T13:28:57.610Z,12.43
2023-04-08T13:31:24.942Z,11.60
2023-04-08T13:33:51.581Z,9.88
2023-04-08T13:36:18.150Z,9.77
2023-04-08T13:38:46.068Z,9.82
2023-04-08T13:41:12.621Z,9.20
2023-04-08T13:43:39.089Z,9.27
2023-04-08T13:46:05.798Z,8.32
2023-04-08T13:48:32.406Z,8.98
2023-04-08T13:50:58.915Z,9.48
2023-04-08T13:53:25.377Z,9.43
2023-04-08T13:55:55.165Z,9.30
2023-04-08T13:58:24.168Z,8.57
2023-04-08T14:00:51.678Z,9.60
2023-04-08T14:03:18.987Z,10.13
2023-04-08T14:05:45.911Z,10.35
2023-04-08T14:08:13.616Z,9.68
2023-04-08T14:10:41.911Z,9.50
2023-04-08T14:13:08.867Z,9.10
2023-04-08T14:15:35.442Z,10.20
2023-04-08T14:18:02.100Z,9.45
2023-04-08T14:20:28.694Z,9.55
2023-04-08T14:22:56.658Z,9.13
2023-04-08T14:25:23.646Z,9.63
2023-04-08T14:27:58.040Z,8.98
2023-04-08T14:30:25.794Z,9.38
2023-04-08T14:32:52.760Z,8.77
2023-04-08T14:35:19.353Z,8.98
2023-04-08T14:37:45.898Z,9.45
2023-04-08T14:40:12.530Z,9.95
2023-04-08T14:42:39.180Z,9.65
2023-04-08T14:45:06.067Z,9.38
2023-04-08T14:47:32.705Z,9.68
2023-04-08T14:49:59.225Z,8.65
2023-04-08T14:52:25.713Z,8.55
2023-04-08T14:54:53.670Z,8.68
2023-04-08T14:57:20.391Z,9.38
2023-04-08T14:59:46.941Z,10.38
2023-04-08T15:02:13.730Z,10.18
2023-04-08T15:04:40.365Z,9.48
2023-04-08T15:07:07.558Z,10.38
2023-04-08T15:09:34.099Z,9.57
2023-04-08T15:12:01.365Z,10.30
2023-04-08T15:14:28.115Z,9.38
2023-04-08T15:16:54.648Z,9.60
2023-04-08T15:19:21.192Z,10.27
2023-04-08T15:21:47.693Z,10.70
2023-04-08T15:24:14.216Z,10.02
2023-04-08T15:26:41.098Z,11.38
2023-04-08T15:29:07.983Z,10.38
2023-04-08T15:31:35.191Z,10.13
2023-04-08T15:34:02.887Z,10.18
2023-04-08T15:36:29.950Z,10.48
2023-04-08T15:38:56.796Z,9.52
2023-04-08T15:41:23.290Z,9.82
2023-04-08T15:43:50.182Z,9.20
2023-04-08T15:46:22.994Z,8.68
2023-04-08T15:48:50.197Z,9.07
2023-04-08T15:51:18.127Z,8.98
2023-04-08T15:53:44.690Z,8.27
2023-04-08T15:56:18.084Z,8.13
2023-04-08T15:58:45.644Z,8.48
2023-04-08T16:01:12.360Z,8.35
2023-04-08T16:03:39.296Z,8.25
2023-04-08T16:06:06.224Z,8.02
2023-04-08T16:08:34.741Z,8.40
2023-04-08T16:11:02.718Z,8.57
2023-04-08T16:13:30.208Z,8.32
2023-04-08T16:15:58.186Z,9.40
2023-04-08T16:18:25.187Z,8.65
2023-04-08T16:20:51.731Z,8.88
2023-04-08T16:23:18.248Z,9.10
2023-04-08T16:25:45.054Z,8.32
2023-04-08T16:28:11.857Z,8.75
2023-04-08T16:30:38.800Z,9.45
2023-04-08T16:33:06.269Z,9.40
2023-04-08T16:35:33.017Z,9.88
2023-04-08T16:37:59.646Z,9.30
2023-04-08T16:40:26.236Z,8.95
2023-04-08T16:42:52.889Z,9.88
2023-04-08T16:45:19.531Z,10.32
2023-04-08T16:47:46.146Z,9.65
2023-04-08T16:50:12.730Z,11.40
2023-04-08T16:52:39.236Z,10.48
2023-04-08T16:55:06.139Z,10.52
2023-04-08T16:57:32.590Z,11.23
2023-04-08T16:59:59.137Z,12.02
2023-04-08T17:02:26.053Z,15.23
2023-04-08T17:04:52.639Z,15.55
2023-04-08T17:07:19.174Z,15.68
2023-04-08T17:09:49.478Z,15.77
2023-04-08T17:12:16.293Z,16.23
2023-04-08T17:14:42.969Z,16.58
2023-04-08T17:17:09.519Z,16.20
2023-04-08T17:19:36.704Z,15.50
2023-04-08T17:22:03.216Z,16.73
2023-04-08T17:24:29.853Z,16.65
2023-04-08T17:26:59.952Z,17.05
2023-04-08T17:29:26.493Z,17.73
2023-04-08T17:31:53.145Z,18.08
2023-04-08T17:34:19.677Z,18.80
2023-04-08T17:36:46.318Z,19.77
2023-04-08T17:39:12.854Z,19.35
2023-04-08T17:41:41.094Z,19.55
2023-04-08T17:44:08.651Z,20.33
2023-04-08T17:46:35.444Z,19.15
2023-04-08T17:49:01.989Z,21.50
2023-04-08T17:51:30.195Z,20.67
2023-04-08T17:53:56.767Z,20.58
2023-04-08T17:56:23.670Z,22.65
2023-04-08T17:58:50.290Z,21.17
2023-04-08T18:01:17.111Z,22.23
2023-04-08T18:03:43.870Z,22.95
2023-04-08T18:06:10.690Z,22.05
2023-04-08T18:08:37.181Z,24.33
2023-04-08T18:11:06.623Z,22.40
2023-04-08T18:13:33.327Z,23.67
2023-04-08T18:15:59.843Z,23.33
2023-04-08T18:18:26.332Z,23.13
2023-04-08T18:20:52.846Z,23.30
2023-04-08T18:23:19.392Z,23.33
2023-04-08T18:25:46.723Z,22.30
2023-04-08T18:28:13.277Z,23.23
2023-04-08T18:30:39.808Z,22.40
2023-04-08T18:33:06.781Z,23.23
2023-04-08T18:35:33.381Z,21.75
2023-04-08T18:37:59.877Z,22.25
2023-04-08T18:40:26.531Z,21.48
2023-04-08T18:42:53.041Z,20.42
2023-04-08T18:45:19.553Z,23.08
2023-04-08T18:47:46.538Z,21.55
2023-04-08T18:50:13.035Z,22.77
2023-04-08T18:52:39.595Z,20.90
2023-04-08T18:55:06.250Z,21.65
2023-04-08T18:57:33.198Z,23.50
2023-04-08T18:59:59.681Z,22.45
2023-04-08T19:02:26.265Z,23.08
2023-04-08T19:04:52.823Z,21.52
2023-04-08T19:07:19.373Z,22.67
2023-04-08T19:09:45.883Z,23.13
2023-04-08T19:12:12.506Z,23.15
2023-04-08T19:14:39.651Z,24.25
2023-04-08T19:17:06.299Z,22.98
2023-04-08T19:19:32.803Z,22.30
2023-04-08T19:22:02.682Z,22.92
2023-04-08T19:24:29.201Z,22.60
2023-04-08T19:26:55.719Z,22.73
2023-04-08T19:29:23.370Z,22.95
2023-04-08T19:31:50.070Z,21.35
2023-04-08T19:34:16.587Z,22.75
2023-04-08T19:36:43.118Z,23.10
2023-04-08T19:39:09.581Z,22.42
2023-04-08T19:41:36.096Z,23.63
2023-04-08T19:44:02.560Z,21.70
2023-04-08T19:46:29.495Z,22.38
2023-04-08T19:48:58.730Z,23.30
2023-04-08T19:51:25.285Z,21.13
2023-04-08T19:53:53.191Z,23.60
2023-04-08T19:56:19.929Z,22.67
2023-04-08T19:58:46.516Z,21.83
2023-04-08T20:01:14.155Z,22.20
2023-04-08T20:03:42.117Z,23.45
2023-04-08T20:06:08.973Z,21.85
2023-04-08T20:08:35.591Z,23.02
2023-04-08T20:11:04.464Z,20.98
2023-04-08T20:13:31.346Z,22.08
2023-04-08T20:15:58.020Z,22.45
2023-04-08T20:18:24.517Z,21.92
2023-04-08T20:20:51.060Z,22.60
2023-04-08T20:23:17.591Z,22.50
2023-04-08T20:25:44.048Z,22.38
2023-04-08T20:28:10.540Z,23.25
2023-04-08T20:30:37.752Z,22.63
2023-04-08T20:33:04.393Z,22.42
2023-04-08T20:35:31.034Z,25.20
2023-04-08T20:37:57.552Z,25.00
2023-04-08T20:40:24.096Z,24.05
2023-04-08T20:42:50.594Z,24.98
2023-04-08T20:45:17.048Z,25.17
2023-04-08T20:47:46.091Z,25.95
2023-04-08T20:50:12.727Z,26.58
2023-04-08T20:52:39.533Z,25.50
2023-04-08T20:55:07.115Z,28.40
2023-04-08T20:57:33.648Z,27.77
2023-04-08T21:00:00.559Z,28.15
2023-04-08T21:02:27.221Z,26.38
2023-04-08T21:04:53.774Z,26.17
2023-04-08T21:07:20.277Z,25.05
2023-04-08T21:09:48.297Z,25.52
2023-04-08T21:12:14.785Z,25.05
2023-04-08T21:14:42.069Z,24.70
2023-04-08T21:17:08.579Z,25.50
2023-04-08T21:19:35.435Z,25.08
2023-04-08T21:22:01.930Z,24.25
2023-04-08T21:24:28.554Z,24.33
2023-04-08T21:26:55.035Z,24.38
2023-04-08T21:29:21.526Z,25.88
2023-04-08T21:31:48.023Z,25.17
2023-04-08T21:34:15.745Z,25.88
2023-04-08T21:36:42.219Z,26.50
2023-04-08T21:39:08.709Z,24.27
2023-04-08T21:41:35.309Z,26.70
2023-04-08T21:44:02.148Z,24.52
2023-04-08T21:46:28.664Z,25.63
2023-04-08T21:48:55.300Z,26.02
2023-04-08T21:51:21.882Z,26.42
2023-04-08T21:53:50.652Z,25.83
2023-04-08T21:56:17.408Z,26.83
2023-04-08T21:58:43.955Z,27.38
2023-04-08T22:01:10.473Z,28.08
2023-04-08T22:03:37.075Z,26.15
2023-04-08T22:06:03.678Z,25.05
2023-04-08T22:08:32.506Z,27.15
2023-04-08T22:10:59.130Z,25.95
2023-04-08T22:13:25.616Z,26.17
2023-04-08T22:15:52.113Z,28.15
2023-04-08T22:18:18.615Z,28.10
2023-04-08T22:20:45.177Z,28.23
2023-04-08T22:23:11.680Z,28.27
2023-04-08T22:25:38.211Z,27.65
2023-04-08T22:28:04.667Z,27.67
2023-04-08T22:30:31.230Z,28.40
2023-04-08T22:32:57.906Z,28.50
2023-04-08T22:35:24.478Z,29.25
2023-04-08T22:37:51.174Z,29.05
2023-04-08T22:40:17.811Z,28.60
2023-04-08T22:42:44.300Z,30.02
2023-04-08T22:45:10.954Z,28.92
2023-04-08T22:47:37.645Z,29.00
2023-04-08T22:50:04.700Z,28.15
2023-04-08T22:52:31.203Z,28.75
2023-04-08T22:54:57.712Z,28.73
2023-04-08T22:57:24.281Z,28.65
2023-04-08T22:59:50.807Z,29.35
2023-04-08T23:02:17.471Z,29.73
2023-04-08T23:04:44.045Z,28.27
2023-04-08T23:07:11.064Z,28.67
2023-04-08T23:09:37.605Z,28.13
2023-04-08T23:12:04.141Z,27.45
2023-04-08T23:14:30.626Z,28.15
2023-04-08T23:16:57.115Z,30.20
2023-04-08T23:19:23.650Z,28.73
2023-04-08T23:21:50.383Z,29.23
2023-04-08T23:24:16.850Z,31.20
2023-04-08T23:26:43.369Z,29.30
2023-04-08T23:29:10.595Z,29.85
2023-04-08T23:31:37.107Z,29.00
2023-04-08T23:34:03.900Z,29.70
2023-04-08T23:36:31.349Z,28.73
2023-04-08T23:38:57.932Z,29.48
2023-04-08T23:41:24.450Z,29.75
2023-04-08T23:43:52.566Z,28.08
2023-04-08T23:46:19.115Z,28.42
2023-04-08T23:48:45.618Z,28.33
2023-04-08T23:51:12.169Z,27.27
2023-04-08T23:53:38.745Z,29.17
2023-04-08T23:56:06.520Z,28.42
2023-04-08T23:58:33.301Z,29.73
